createdAt,value
2023-04-08T00:01:26.353Z,7.20
2023-04-08T00:03:53.640Z,7.20
2023-04-08T00:06:21.005Z,7.20
2023-04-08T00:08:48.234Z,7.20
2023-04-08T00:11:15.606Z,7.20
2023-04-08T00:13:42.628Z,7.20
2023-04-08T00:16:09.602Z,7.10
2023-04-08T00:18:38.363Z,7.10
2023-04-08T00:21:05.454Z,7.00
2023-04-08T00:23:32.428Z,6.90
2023-04-08T00:25:59.426Z,6.90
2023-04-08T00:28:26.616Z,6.80
2023-04-08T00:30:53.926Z,6.70
2023-04-08T00:33:20.986Z,6.60
2023-04-08T00:35:48.398Z,6.50
2023-04-08T00:38:15.467Z,6.50
2023-04-08T00:40:42.488Z,6.50
2023-04-08T00:43:09.514Z,6.50
2023-04-08T00:45:36.570Z,6.50
2023-04-08T00:48:04.761Z,6.50
2023-04-08T00:50:32.191Z,6.50
2023-04-08T00:52:59.212Z,6.30
2023-04-08T00:55:26.192Z,6.30
2023-04-08T00:57:54.108Z,6.30
2023-04-08T01:00:21.220Z,6.30
2023-04-08T01:03:11.265Z,6.20
2023-04-08T01:06:02.821Z,6.20
2023-04-08T01:08:31.620Z,6.10
2023-04-08T01:11:02.193Z,6.10
2023-04-08T01:13:36.061Z,6.00
2023-04-08T01:16:03.204Z,6.00
2023-04-08T01:18:31.713Z,5.90
2023-04-08T01:21:00.451Z,5.90
2023-04-08T01:23:39.378Z,5.90
2023-04-08T01:26:06.475Z,5.80
2023-04-08T01:28:35.949Z,5.80
2023-04-08T01:31:04.101Z,5.80
2023-04-08T01:33:32.283Z,5.80
2023-04-08T01:36:01.087Z,5.80
2023-04-08T01:38:29.434Z,5.80
2023-04-08T01:40:57.349Z,5.80
2023-04-08T01:43:26.283Z,5.80
2023-04-08T01:45:58.603Z,5.80
2023-04-08T01:48:26.365Z,5.70
2023-04-08T01:50:54.555Z,5.70
2023-04-08T01:53:21.803Z,5.70
2023-04-08T01:55:57.521Z,5.60
2023-04-08T01:58:27.873Z,5.50
2023-04-08T02:00:56.873Z,5.50
2023-04-08T02:03:25.886Z,5.40
2023-04-08T02:05:52.981Z,5.20
2023-04-08T02:08:19.998Z,5.00
2023-04-08T02:10:47.289Z,5.00
2023-04-08T02:13:14.470Z,5.00
2023-04-08T02:15:49.525Z,4.80
2023-04-08T02:18:22.391Z,4.70
2023-04-08T02:21:00.692Z,4.60
2023-04-08T02:23:30.189Z,4.60
2023-04-08T02:25:57.471Z,4.60
2023-04-08T02:28:26.839Z,4.60
2023-04-08T02:30:55.348Z,4.60
2023-04-08T02:33:23.476Z,4.60
2023-04-08T02:35:54.802Z,4.50
2023-04-08T02:38:24.295Z,4.60
2023-04-08T02:40:51.756Z,4.60
2023-04-08T02:43:18.878Z,4.60
2023-04-08T02:45:46.409Z,4.50
2023-04-08T02:48:13.578Z,4.50
2023-04-08T02:50:41.304Z,4.50
2023-04-08T02:53:09.164Z,4.50
2023-04-08T02:55:36.241Z,4.40
2023-04-08T02:58:03.192Z,4.40
2023-04-08T03:00:30.544Z,4.30
2023-04-08T03:02:57.615Z,4.20
2023-04-08T03:05:26.438Z,4.10
2023-04-08T03:07:53.515Z,3.90
2023-04-08T03:10:20.662Z,3.90
2023-04-08T03:12:47.683Z,3.80
2023-04-08T03:15:14.693Z,3.80
2023-04-08T03:17:41.706Z,3.70
2023-04-08T03:20:09.484Z,3.70
2023-04-08T03:22:36.880Z,3.70
2023-04-08T03:25:04.595Z,3.70
2023-04-08T03:27:31.604Z,3.70
2023-04-08T03:29:58.956Z,3.70
2023-04-08T03:32:26.230Z,3.70
2023-04-08T03:34:53.702Z,3.60
2023-04-08T03:37:20.881Z,3.60
2023-04-08T03:39:47.903Z,3.60
2023-04-08T03:42:15.022Z,3.60
2023-04-08T03:44:42.104Z,3.60
2023-04-08T03:47:09.212Z,3.60
2023-04-08T03:49:36.559Z,3.60
2023-04-08T03:52:03.611Z,3.70
2023-04-08T03:54:30.923Z,3.60
2023-04-08T03:56:57.893Z,3.70
2023-04-08T03:59:25.188Z,3.70
2023-04-08T04:01:53.733Z,3.80
2023-04-08T04:04:21.393Z,3.70
2023-04-08T04:06:48.891Z,3.70
2023-04-08T04:09:16.925Z,3.70
2023-04-08T04:11:43.957Z,3.70
2023-04-08T04:14:10.966Z,3.60
2023-04-08T04:16:38.031Z,3.70
2023-04-08T04:19:05.115Z,3.60
2023-04-08T04:21:32.193Z,3.60
2023-04-08T04:23:59.187Z,3.60
2023-04-08T04:26:26.179Z,3.60
2023-04-08T04:28:53.361Z,3.60
2023-04-08T04:31:22.233Z,3.60
2023-04-08T04:33:49.713Z,3.60
2023-04-08T04:36:16.786Z,3.60
2023-04-08T04:38:44.443Z,3.60
2023-04-08T04:41:11.964Z,3.60
2023-04-08T04:43:38.941Z,3.60
2023-04-08T04:46:09.131Z,3.60
2023-04-08T04:48:36.612Z,3.60
2023-04-08T04:51:03.650Z,3.60
2023-04-08T04:53:33.863Z,3.60
2023-04-08T04:56:02.139Z,3.70
2023-04-08T04:58:29.771Z,3.60
2023-04-08T05:00:57.149Z,3.60
2023-04-08T05:03:24.239Z,3.60
2023-04-08T05:05:53.079Z,3.60
2023-04-08T05:08:20.811Z,3.70
2023-04-08T05:10:50.468Z,3.70
2023-04-08T05:13:18.669Z,3.70
2023-04-08T05:15:46.139Z,3.70
2023-04-08T05:18:13.488Z,3.70
2023-04-08T05:20:40.518Z,3.70
2023-04-08T05:23:08.197Z,3.70
2023-04-08T05:25:35.568Z,3.80
2023-04-08T05:28:02.855Z,3.80
2023-04-08T05:30:30.131Z,3.90
2023-04-08T05:32:59.894Z,3.90
2023-04-08T05:35:27.773Z,3.90
2023-04-08T05:37:54.861Z,3.90
2023-04-08T05:40:21.820Z,3.90
2023-04-08T05:42:48.887Z,4.00
2023-04-08T05:45:16.443Z,3.90
2023-04-08T05:47:43.563Z,3.90
2023-04-08T05:50:11.612Z,4.00
2023-04-08T05:52:44.075Z,4.00
2023-04-08T05:55:11.986Z,4.10
2023-04-08T05:57:39.671Z,4.10
2023-04-08T06:00:08.631Z,4.10
2023-04-08T06:02:37.205Z,4.20
2023-04-08T06:05:05.060Z,4.20
2023-04-08T06:07:33.294Z,4.20
2023-04-08T06:10:00.277Z,4.20
2023-04-08T06:12:27.310Z,4.20
2023-04-08T06:14:57.813Z,4.20
2023-04-08T06:17:24.927Z,4.20
2023-04-08T06:19:51.987Z,4.20
2023-04-08T06:22:19.037Z,4.20
2023-04-08T06:24:48.277Z,4.20
2023-04-08T06:27:16.150Z,4.20
2023-04-08T06:29:43.343Z,4.30
2023-04-08T06:32:10.732Z,4.30
2023-04-08T06:34:38.311Z,4.30
2023-04-08T06:37:06.531Z,4.30
2023-04-08T06:39:34.166Z,4.30
2023-04-08T06:42:01.896Z,4.40
2023-04-08T06:44:28.957Z,4.40
2023-04-08T06:46:56.235Z,4.40
2023-04-08T06:49:23.348Z,4.40
2023-04-08T06:51:50.541Z,4.40
2023-04-08T06:54:17.605Z,4.40
2023-04-08T06:56:44.582Z,4.50
2023-04-08T06:59:11.612Z,4.50
2023-04-08T07:01:38.684Z,4.60
2023-04-08T07:04:06.021Z,4.60
2023-04-08T07:06:33.124Z,4.60
2023-04-08T07:09:00.136Z,4.70
2023-04-08T07:11:27.438Z,4.70
2023-04-08T07:13:54.484Z,4.80
2023-04-08T07:16:21.642Z,4.90
2023-04-08T07:18:48.835Z,5.00
2023-04-08T07:21:15.997Z,5.00
2023-04-08T07:23:43.041Z,5.10
2023-04-08T07:26:10.171Z,5.10
2023-04-08T07:28:37.154Z,5.20
2023-04-08T07:31:17.712Z,5.20
2023-04-08T07:33:45.891Z,5.10
2023-04-08T07:36:14.278Z,5.00
2023-04-08T07:38:41.891Z,5.10
2023-04-08T07:41:08.928Z,5.20
2023-04-08T07:43:37.506Z,5.20
2023-04-08T07:46:06.327Z,5.20
2023-04-08T07:48:34.328Z,5.10
2023-04-08T07:51:10.906Z,5.10
2023-04-08T07:53:40.705Z,5.00
2023-04-08T07:56:15.268Z,5.00
2023-04-08T07:58:43.141Z,5.00
2023-04-08T08:01:22.276Z,5.00
2023-04-08T08:03:53.500Z,5.00
2023-04-08T08:06:21.943Z,5.10
2023-04-08T08:08:49.027Z,5.10
2023-04-08T08:11:16.329Z,5.00
2023-04-08T08:13:43.459Z,5.10
2023-04-08T08:16:12.051Z,5.10
2023-04-08T08:18:40.608Z,5.20
2023-04-08T08:21:08.376Z,5.20
2023-04-08T08:23:35.453Z,5.20
2023-04-08T08:26:04.518Z,5.30
2023-04-08T08:28:31.644Z,5.40
2023-04-08T08:30:59.156Z,5.30
2023-04-08T08:33:27.429Z,5.20
2023-04-08T08:35:54.565Z,5.10
2023-04-08T08:38:21.718Z,5.00
2023-04-08T08:40:57.483Z,5.00
2023-04-08T08:43:29.043Z,5.00
2023-04-08T08:45:56.110Z,4.90
2023-04-08T08:48:23.142Z,4.80
2023-04-08T08:50:50.136Z,4.90
2023-04-08T08:53:17.537Z,5.00
2023-04-08T08:56:13.580Z,4.90
2023-04-08T08:58:32.122Z,5.00
2023-04-08T09:00:59.089Z,5.10
2023-04-08T09:03:28.121Z,5.10
2023-04-08T09:06:00.497Z,5.30
2023-04-08T09:08:37.075Z,5.40
2023-04-08T09:11:15.954Z,5.50
2023-04-08T09:13:44.258Z,5.60
2023-04-08T09:16:18.910Z,5.70
2023-04-08T09:18:49.113Z,5.80
2023-04-08T09:21:18.126Z,5.90
2023-04-08T09:23:51.055Z,6.00
2023-04-08T09:26:24.091Z,6.10
2023-04-08T09:29:26.325Z,6.20
2023-04-08T09:31:56.487Z,6.20
2023-04-08T09:34:24.594Z,6.10
2023-04-08T09:36:52.968Z,6.10
2023-04-08T09:39:20.245Z,6.10
2023-04-08T09:41:51.215Z,6.10
2023-04-08T09:44:21.179Z,6.10
2023-04-08T09:46:51.903Z,6.10
2023-04-08T09:49:50.115Z,6.00
2023-04-08T09:52:34.408Z,6.00
2023-04-08T09:55:06.786Z,6.00
2023-04-08T09:58:27.996Z,6.10
2023-04-08T10:00:55.532Z,6.10
2023-04-08T10:03:32.074Z,6.20
2023-04-08T10:06:03.394Z,6.30
2023-04-08T10:08:33.201Z,6.40
2023-04-08T10:11:00.556Z,6.50
2023-04-08T10:13:28.803Z,6.50
2023-04-08T10:16:28.428Z,6.50
2023-04-08T10:18:56.428Z,6.50
2023-04-08T10:21:33.352Z,6.50
2023-04-08T10:24:06.528Z,6.40
2023-04-08T10:26:36.471Z,6.40
2023-04-08T10:29:33.189Z,6.40
2023-04-08T10:32:01.483Z,6.30
2023-04-08T10:34:29.364Z,6.30
2023-04-08T10:36:59.213Z,6.30
2023-04-08T10:39:27.483Z,6.30
2023-04-08T10:41:54.722Z,6.30
2023-04-08T10:44:28.235Z,6.30
2023-04-08T10:46:55.962Z,6.30
2023-04-08T10:49:23.156Z,6.30
2023-04-08T10:51:50.275Z,6.30
2023-04-08T10:54:18.719Z,6.30
2023-04-08T10:56:48.619Z,6.30
2023-04-08T10:59:29.668Z,6.50
2023-04-08T11:01:57.326Z,6.60
2023-04-08T11:04:25.963Z,6.60
2023-04-08T11:06:53.800Z,6.50
2023-04-08T11:09:21.219Z,6.50
2023-04-08T11:11:48.275Z,6.40
2023-04-08T11:14:17.597Z,6.40
2023-04-08T11:16:45.362Z,6.50
2023-04-08T11:19:14.475Z,6.50
2023-04-08T11:21:41.675Z,6.60
2023-04-08T11:24:13.571Z,6.60
2023-04-08T11:26:42.231Z,6.70
2023-04-08T11:29:14.488Z,6.70
2023-04-08T11:31:44.156Z,6.70
2023-04-08T11:34:11.420Z,6.80
2023-04-08T11:36:41.910Z,6.90
2023-04-08T11:39:12.402Z,7.00
2023-04-08T11:41:40.757Z,7.10
2023-04-08T11:44:08.448Z,7.10
2023-04-08T11:46:35.888Z,7.10
2023-04-08T11:49:08.647Z,7.20
2023-04-08T11:51:54.222Z,7.20
2023-04-08T11:54:28.499Z,7.30
2023-04-08T11:56:56.400Z,7.30
2023-04-08T11:59:23.471Z,7.30
2023-04-08T12:01:51.833Z,7.30
2023-04-08T12:04:19.085Z,7.20
2023-04-08T12:06:47.307Z,7.20
2023-04-08T12:09:14.724Z,7.20
2023-04-08T12:11:42.201Z,7.30
2023-04-08T12:14:09.826Z,7.40
2023-04-08T12:16:39.872Z,7.50
2023-04-08T12:19:07.289Z,7.50
2023-04-08T12:21:34.758Z,7.50
2023-04-08T12:24:01.845Z,7.50
2023-04-08T12:26:29.009Z,7.60
2023-04-08T12:28:56.042Z,7.60
2023-04-08T12:31:23.539Z,7.70
2023-04-08T12:33:50.780Z,7.80
2023-04-08T12:36:18.101Z,7.80
2023-04-08T12:38:45.098Z,7.90
2023-04-08T12:41:12.092Z,7.90
2023-04-08T12:43:39.572Z,8.00
2023-04-08T12:46:06.841Z,8.00
2023-04-08T12:48:33.896Z,8.00
2023-04-08T12:51:01.011Z,8.00
2023-04-08T12:53:28.245Z,8.00
2023-04-08T12:55:57.715Z,8.00
2023-04-08T12:58:27.959Z,7.90
2023-04-08T13:00:55.092Z,7.80
2023-04-08T13:03:22.341Z,7.80
2023-04-08T13:05:49.466Z,7.80
2023-04-08T13:08:17.003Z,7.70
2023-04-08T13:10:44.032Z,7.70
2023-04-08T13:13:11.892Z,7.70
2023-04-08T13:15:38.937Z,7.70
2023-04-08T13:18:06.174Z,7.70
2023-04-08T13:20:33.740Z,7.70
2023-04-08T13:23:03.583Z,7.80
2023-04-08T13:25:30.681Z,7.90
2023-04-08T13:27:57.734Z,7.90
2023-04-08T13:30:24.854Z,7.90
2023-04-08T13:32:51.909Z,7.90
2023-04-08T13:35:18.924Z,7.90
2023-04-08T13:37:45.931Z,7.90
2023-04-08T13:40:13.529Z,7.90
2023-04-08T13:42:41.683Z,8.00
2023-04-08T13:45:09.033Z,8.10
2023-04-08T13:47:37.923Z,8.20
2023-04-08T13:50:06.331Z,8.20
2023-04-08T13:52:33.438Z,8.30
2023-04-08T13:55:00.839Z,8.30
2023-04-08T13:57:27.955Z,8.30
2023-04-08T13:59:54.978Z,8.30
2023-04-08T14:02:22.061Z,8.40
2023-04-08T14:04:49.202Z,8.40
2023-04-08T14:07:16.348Z,8.40
2023-04-08T14:09:43.363Z,8.40
2023-04-08T14:12:10.816Z,8.40
2023-04-08T14:14:37.807Z,8.40
2023-04-08T14:17:04.881Z,8.40
2023-04-08T14:19:32.361Z,8.30
2023-04-08T14:21:59.354Z,8.20
2023-04-08T14:24:26.431Z,8.20
2023-04-08T14:26:53.441Z,8.10
2023-04-08T14:29:20.442Z,8.00
2023-04-08T14:31:47.449Z,7.90
2023-04-08T14:34:14.498Z,7.80
2023-04-08T14:36:41.507Z,7.80
2023-04-08T14:39:08.500Z,7.80
2023-04-08T14:41:35.521Z,7.80
2023-04-08T14:44:02.516Z,7.80
2023-04-08T14:46:29.749Z,7.80
2023-04-08T14:48:57.067Z,7.80
2023-04-08T14:51:24.127Z,7.90
2023-04-08T14:53:51.220Z,7.90
2023-04-08T14:56:18.284Z,7.90
2023-04-08T14:58:45.279Z,8.00
2023-04-08T15:01:13.195Z,8.00
2023-04-08T15:03:40.447Z,8.00
2023-04-08T15:06:07.652Z,8.00
2023-04-08T15:08:35.372Z,8.00
2023-04-08T15:11:02.354Z,8.00
2023-04-08T15:13:29.404Z,8.00
2023-04-08T15:15:56.822Z,8.00
2023-04-08T15:18:23.951Z,8.00
2023-04-08T15:20:50.953Z,8.00
2023-04-08T15:23:18.097Z,8.00
2023-04-08T15:25:45.108Z,8.00
2023-04-08T15:28:12.393Z,7.90
2023-04-08T15:30:39.466Z,7.90
2023-04-08T15:33:06.628Z,7.90
2023-04-08T15:35:33.908Z,7.90
2023-04-08T15:38:01.248Z,7.90
2023-04-08T15:40:28.287Z,7.90
2023-04-08T15:42:56.125Z,7.80
2023-04-08T15:45:23.160Z,7.80
2023-04-08T15:47:50.325Z,7.80
2023-04-08T15:50:17.687Z,7.80
2023-04-08T15:52:45.032Z,7.70
2023-04-08T15:55:12.137Z,7.70
2023-04-08T15:57:39.513Z,7.70
2023-04-08T16:00:13.938Z,7.70
2023-04-08T16:02:43.404Z,7.70
2023-04-08T16:05:12.535Z,7.60
2023-04-08T16:07:39.638Z,7.60
2023-04-08T16:10:07.350Z,7.60
2023-04-08T16:12:35.010Z,7.60
2023-04-08T16:15:02.251Z,7.60
2023-04-08T16:17:29.383Z,7.60
2023-04-08T16:19:57.503Z,7.60
2023-04-08T16:22:25.401Z,7.60
2023-04-08T16:24:53.242Z,7.60
2023-04-08T16:27:20.508Z,7.60
2023-04-08T16:29:47.552Z,7.60
2023-04-08T16:32:14.611Z,7.50
2023-04-08T16:34:41.726Z,7.50
2023-04-08T16:37:08.712Z,7.50
2023-04-08T16:39:35.798Z,7.50
2023-04-08T16:42:02.821Z,7.50
2023-04-08T16:44:29.834Z,7.40
2023-04-08T16:46:56.879Z,7.40
2023-04-08T16:49:23.898Z,7.40
2023-04-08T16:51:50.876Z,7.40
2023-04-08T16:54:17.885Z,7.40
2023-04-08T16:56:45.856Z,7.40
2023-04-08T16:59:13.419Z,7.30
2023-04-08T17:01:40.976Z,7.30
2023-04-08T17:04:08.128Z,7.30
2023-04-08T17:06:36.383Z,7.20
2023-04-08T17:09:04.122Z,7.20
2023-04-08T17:11:31.686Z,7.20
2023-04-08T17:13:59.807Z,7.20
2023-04-08T17:16:26.963Z,7.20
2023-04-08T17:18:54.021Z,7.20
2023-04-08T17:21:21.099Z,7.20
2023-04-08T17:23:48.165Z,7.20
2023-04-08T17:26:15.535Z,7.30
2023-04-08T17:28:43.364Z,7.20
2023-04-08T17:31:10.928Z,7.20
2023-04-08T17:33:38.140Z,7.20
2023-04-08T17:36:05.572Z,7.20
2023-04-08T17:38:33.048Z,7.20
2023-04-08T17:41:00.178Z,7.20
2023-04-08T17:43:27.503Z,7.20
2023-04-08T17:45:58.776Z,7.20
2023-04-08T17:48:25.849Z,7.20
2023-04-08T17:51:02.847Z,7.20
2023-04-08T17:53:30.121Z,7.20
2023-04-08T17:55:57.165Z,7.20
2023-04-08T17:58:24.471Z,7.20
2023-04-08T18:00:51.531Z,7.20
2023-04-08T18:03:19.667Z,7.20
2023-04-08T18:05:46.789Z,7.10
2023-04-08T18:08:13.842Z,7.10
2023-04-08T18:10:43.373Z,7.10
2023-04-08T18:13:11.941Z,7.10
2023-04-08T18:15:39.692Z,7.10
2023-04-08T18:18:06.664Z,7.10
2023-04-08T18:20:37.389Z,7.00
2023-04-08T18:23:04.594Z,7.00
2023-04-08T18:25:32.610Z,7.00
2023-04-08T18:27:59.821Z,7.00
2023-04-08T18:30:26.956Z,7.00
2023-04-08T18:32:54.130Z,7.00
2023-04-08T18:35:21.347Z,7.00
2023-04-08T18:37:48.328Z,7.00
2023-04-08T18:40:15.638Z,7.00
2023-04-08T18:42:42.647Z,6.90
2023-04-08T18:45:09.974Z,6.90
2023-04-08T18:47:37.918Z,6.90
2023-04-08T18:50:05.369Z,6.90
2023-04-08T18:52:32.656Z,6.90
2023-04-08T18:55:02.741Z,6.90
2023-04-08T18:57:29.867Z,6.90
2023-04-08T18:59:56.863Z,6.80
2023-04-08T19:02:24.033Z,6.80
2023-04-08T19:04:52.170Z,6.80
2023-04-08T19:07:19.174Z,6.80
2023-04-08T19:09:46.380Z,6.70
2023-04-08T19:12:13.537Z,6.70
2023-04-08T19:14:42.143Z,6.70
2023-04-08T19:17:09.876Z,6.60
2023-04-08T19:19:37.486Z,6.60
2023-04-08T19:22:05.990Z,6.60
2023-04-08T19:24:33.989Z,6.50
2023-04-08T19:27:01.194Z,6.50
2023-04-08T19:29:29.978Z,6.50
2023-04-08T19:31:59.336Z,6.50
2023-04-08T19:34:26.867Z,6.50
2023-04-08T19:36:53.964Z,6.40
2023-04-08T19:39:21.236Z,6.40
2023-04-08T19:41:48.616Z,6.40
2023-04-08T19:44:15.945Z,6.40
2023-04-08T19:46:43.014Z,6.40
2023-04-08T19:49:10.097Z,6.40
2023-04-08T19:51:37.176Z,6.40
2023-04-08T19:54:04.229Z,6.40
2023-04-08T19:56:34.191Z,6.40
2023-04-08T19:59:02.084Z,6.40
2023-04-08T20:01:30.058Z,6.40
2023-04-08T20:03:57.231Z,6.40
2023-04-08T20:06:24.350Z,6.40
2023-04-08T20:08:53.820Z,6.40
2023-04-08T20:11:21.256Z,6.40
2023-04-08T20:13:49.473Z,6.40
2023-04-08T20:16:16.762Z,6.40
2023-04-08T20:18:43.859Z,6.40
2023-04-08T20:21:14.170Z,6.40
2023-04-08T20:23:44.446Z,6.40
2023-04-08T20:26:13.070Z,6.30
2023-04-08T20:28:41.076Z,6.30
2023-04-08T20:31:09.313Z,6.30
2023-04-08T20:33:38.468Z,6.30
2023-04-08T20:36:05.676Z,6.30
2023-04-08T20:38:35.470Z,6.30
2023-04-08T20:41:02.938Z,6.30
2023-04-08T20:43:29.952Z,6.30
2023-04-08T20:45:56.964Z,6.30
2023-04-08T20:48:24.559Z,6.30
2023-04-08T20:50:51.537Z,6.30
2023-04-08T20:53:19.918Z,6.30
2023-04-08T20:55:46.946Z,6.30
2023-04-08T20:58:13.965Z,6.30
2023-04-08T21:00:41.060Z,6.30
2023-04-08T21:03:08.163Z,6.30
2023-04-08T21:05:38.314Z,6.30
2023-04-08T21:08:06.316Z,6.30
2023-04-08T21:10:33.412Z,6.30
2023-04-08T21:13:01.349Z,6.30
2023-04-08T21:15:28.619Z,6.30
2023-04-08T21:17:55.854Z,6.30
2023-04-08T21:20:23.133Z,6.30
2023-04-08T21:22:50.134Z,6.30
2023-04-08T21:25:18.618Z,6.30
2023-04-08T21:27:45.710Z,6.30
2023-04-08T21:30:12.909Z,6.30
2023-04-08T21:32:40.553Z,6.30
2023-04-08T21:35:07.947Z,6.30
2023-04-08T21:37:35.000Z,6.30
2023-04-08T21:40:02.056Z,6.30
2023-04-08T21:42:29.062Z,6.30
2023-04-08T21:44:56.896Z,6.30
2023-04-08T21:47:23.928Z,6.30
2023-04-08T21:49:51.013Z,6.30
2023-04-08T21:52:18.165Z,6.30
2023-04-08T21:54:50.837Z,6.30
2023-04-08T21:57:18.232Z,6.40
2023-04-08T21:59:45.691Z,6.30
2023-04-08T22:02:12.926Z,6.30
2023-04-08T22:04:40.903Z,6.30
2023-04-08T22:07:08.004Z,6.30
2023-04-08T22:09:35.214Z,6.30
2023-04-08T22:12:02.558Z,6.30
2023-04-08T22:14:29.874Z,6.30
2023-04-08T22:16:56.984Z,6.20
2023-04-08T22:19:24.270Z,6.30
2023-04-08T22:21:51.424Z,6.30
2023-04-08T22:24:21.668Z,6.30
2023-04-08T22:26:48.747Z,6.30
2023-04-08T22:29:15.732Z,6.30
2023-04-08T22:31:42.750Z,6.30
2023-04-08T22:34:09.770Z,6.30
2023-04-08T22:36:36.854Z,6.30
2023-04-08T22:39:04.101Z,6.30
2023-04-08T22:41:31.330Z,6.30
2023-04-08T22:43:58.384Z,6.30
2023-04-08T22:46:25.587Z,6.30
2023-04-08T22:48:52.828Z,6.30
2023-04-08T22:51:20.074Z,6.30
2023-04-08T22:53:47.112Z,6.20
2023-04-08T22:56:14.383Z,6.20
2023-04-08T22:58:41.333Z,6.20
2023-04-08T23:01:17.347Z,6.20
2023-04-08T23:03:44.808Z,6.20
2023-04-08T23:06:11.881Z,6.20
2023-04-08T23:08:39.224Z,6.30
2023-04-08T23:11:07.189Z,6.30
2023-04-08T23:13:34.729Z,6.20
2023-04-08T23:16:01.849Z,6.20
2023-04-08T23:18:28.984Z,6.30
2023-04-08T23:20:57.472Z,6.30
2023-04-08T23:23:25.520Z,6.20
2023-04-08T23:25:55.495Z,6.30
2023-04-08T23:28:23.283Z,6.30
2023-04-08T23:30:50.495Z,6.30
2023-04-08T23:33:17.677Z,6.30
2023-04-08T23:35:44.851Z,6.20
2023-04-08T23:38:12.058Z,6.20
2023-04-08T23:40:39.154Z,6.20
2023-04-08T23:43:06.245Z,6.20
2023-04-08T23:45:33.233Z,6.20
2023-04-08T23:48:00.389Z,6.20
2023-04-08T23:50:27.439Z,6.20
2023-04-08T23:52:54.449Z,6.30
2023-04-08T23:55:21.478Z,6.20
2023-04-08T23:57:50.918Z,6.20
